createdAt,value
2022-09-27T00:00:05.865Z,9.03
2022-09-27T00:02:32.393Z,9.08
2022-09-27T00:04:58.945Z,9.02
2022-09-27T00:07:25.508Z,8.96
2022-09-27T00:09:51.990Z,9.13
2022-09-27T00:12:18.437Z,8.89
2022-09-27T00:14:44.928Z,8.92
2022-09-27T00:17:11.459Z,8.87
2022-09-27T00:19:37.970Z,8.95
2022-09-27T00:22:04.545Z,8.80
2022-09-27T00:24:31.744Z,8.76
2022-09-27T00:26:58.225Z,8.78
2022-09-27T00:29:25.107Z,8.78
2022-09-27T00:31:51.637Z,8.79
2022-09-27T00:34:23.913Z,8.89
2022-09-27T00:36:51.048Z,8.90
2022-09-27T00:39:18.017Z,9.09
2022-09-27T00:41:45.186Z,9.07
2022-09-27T00:44:33.383Z,8.98
2022-09-27T00:47:10.595Z,9.02
2022-09-27T00:49:46.741Z,8.91
2022-09-27T00:52:37.982Z,9.02
2022-09-27T00:55:11.572Z,8.88
2022-09-27T00:57:38.311Z,9.11
2022-09-27T01:00:09.878Z,9.19
2022-09-27T01:02:40.071Z,9.21
2022-09-27T01:05:09.851Z,9.11
2022-09-27T01:07:36.407Z,9.03
2022-09-27T01:10:03.986Z,9.15
2022-09-27T01:12:54.548Z,8.96
2022-09-27T01:15:57.807Z,9.02
2022-09-27T01:19:13.795Z,8.97
2022-09-27T01:21:55.573Z,8.99
2022-09-27T01:24:59.428Z,8.98
2022-09-27T01:27:45.851Z,8.97
2022-09-27T01:30:15.134Z,9.15
2022-09-27T01:33:03.360Z,9.15
2022-09-27T01:36:07.343Z,9.27
2022-09-27T01:38:33.745Z,9.31
2022-09-27T01:41:14.831Z,9.41
2022-09-27T01:43:55.788Z,9.42
2022-09-27T01:46:27.849Z,9.26
2022-09-27T01:48:57.174Z,9.31
2022-09-27T01:51:30.374Z,9.43
2022-09-27T01:54:03.136Z,9.44
2022-09-27T01:56:49.046Z,9.35
2022-09-27T01:59:45.703Z,9.18
2022-09-27T02:02:14.928Z,9.12
2022-09-27T02:04:42.640Z,9.09
2022-09-27T02:07:16.430Z,8.93
2022-09-27T02:09:53.994Z,8.81
2022-09-27T02:12:25.817Z,8.78
2022-09-27T02:15:06.207Z,8.74
2022-09-27T02:17:41.403Z,8.70
2022-09-27T02:20:29.413Z,8.65
2022-09-27T02:23:15.116Z,8.66
2022-09-27T02:25:49.313Z,8.63
2022-09-27T02:28:28.088Z,8.67
2022-09-27T02:30:55.962Z,8.57
2022-09-27T02:33:28.149Z,8.58
2022-09-27T02:35:54.678Z,8.50
2022-09-27T02:38:21.471Z,8.49
2022-09-27T02:40:48.673Z,8.47
2022-09-27T02:43:17.793Z,8.45
2022-09-27T02:46:02.500Z,8.42
2022-09-27T02:48:39.029Z,8.48
2022-09-27T02:51:17.596Z,8.55
2022-09-27T02:54:02.854Z,8.65
2022-09-27T02:56:51.354Z,8.53
2022-09-27T02:59:35.085Z,8.43
2022-09-27T03:02:27.797Z,8.39
2022-09-27T03:04:59.493Z,8.38
2022-09-27T03:07:26.657Z,8.32
2022-09-27T03:09:54.667Z,8.33
2022-09-27T03:12:27.867Z,8.35
2022-09-27T03:15:00.160Z,8.22
2022-09-27T03:17:26.939Z,8.33
2022-09-27T03:19:53.478Z,8.32
2022-09-27T03:22:20.897Z,8.31
2022-09-27T03:24:47.551Z,8.27
2022-09-27T03:27:14.026Z,8.31
2022-09-27T03:29:40.592Z,8.21
2022-09-27T03:32:07.057Z,8.15
2022-09-27T03:34:33.607Z,8.12
2022-09-27T03:37:00.053Z,8.30
2022-09-27T03:39:26.700Z,8.36
2022-09-27T03:41:53.356Z,8.36
2022-09-27T03:44:19.822Z,8.42
2022-09-27T03:46:46.345Z,8.52
2022-09-27T03:49:12.826Z,8.45
2022-09-27T03:51:39.350Z,8.42
2022-09-27T03:54:05.914Z,8.32
2022-09-27T03:56:32.432Z,8.10
2022-09-27T03:58:59.050Z,8.15
2022-09-27T04:01:26.989Z,8.31
2022-09-27T04:03:53.818Z,8.03
2022-09-27T04:06:20.889Z,8.04
2022-09-27T04:08:47.519Z,8.01
2022-09-27T04:11:15.301Z,8.12
2022-09-27T04:13:41.839Z,8.27
2022-09-27T04:16:08.307Z,8.11
2022-09-27T04:18:35.055Z,8.28
2022-09-27T04:21:02.169Z,8.39
2022-09-27T04:23:30.053Z,8.37
2022-09-27T04:25:56.983Z,8.74
2022-09-27T04:28:23.688Z,8.60
2022-09-27T04:30:50.736Z,8.32
2022-09-27T04:33:17.302Z,8.36
2022-09-27T04:36:02.405Z,8.40
2022-09-27T04:38:28.936Z,8.29
2022-09-27T04:40:55.477Z,8.26
2022-09-27T04:43:22.033Z,8.34
2022-09-27T04:45:48.739Z,8.15
2022-09-27T04:48:15.308Z,8.08
2022-09-27T04:50:41.872Z,8.05
2022-09-27T04:53:09.076Z,8.09
2022-09-27T04:55:35.867Z,7.92
2022-09-27T04:58:02.351Z,7.94
2022-09-27T05:00:29.188Z,7.97
2022-09-27T05:02:55.807Z,7.86
2022-09-27T05:05:22.374Z,7.90
2022-09-27T05:07:48.933Z,7.80
2022-09-27T05:10:15.528Z,7.86
2022-09-27T05:12:42.162Z,7.82
2022-09-27T05:15:09.373Z,7.91
2022-09-27T05:17:35.858Z,7.89
2022-09-27T05:20:04.049Z,7.94
2022-09-27T05:22:30.792Z,7.85
2022-09-27T05:24:57.287Z,7.90
2022-09-27T05:27:23.873Z,7.84
2022-09-27T05:29:50.805Z,7.88
2022-09-27T05:32:17.452Z,7.92
2022-09-27T05:34:43.953Z,8.04
2022-09-27T05:37:10.661Z,8.15
2022-09-27T05:39:37.186Z,8.11
2022-09-27T05:42:04.933Z,8.20
2022-09-27T05:44:31.640Z,8.10
2022-09-27T05:47:03.266Z,8.17
2022-09-27T05:49:29.970Z,8.19
2022-09-27T05:51:56.540Z,8.23
2022-09-27T05:54:23.428Z,8.35
2022-09-27T05:56:51.316Z,8.33
2022-09-27T05:59:17.974Z,8.38
2022-09-27T06:01:44.918Z,8.36
2022-09-27T06:04:11.618Z,8.36
2022-09-27T06:06:38.386Z,8.38
2022-09-27T06:09:04.873Z,8.42
2022-09-27T06:11:31.371Z,8.19
2022-09-27T06:13:57.882Z,8.38
2022-09-27T06:16:24.423Z,8.37
2022-09-27T06:18:52.155Z,8.40
2022-09-27T06:21:18.640Z,8.32
2022-09-27T06:23:45.183Z,8.41
2022-09-27T06:26:12.518Z,8.39
2022-09-27T06:28:39.154Z,8.34
2022-09-27T06:31:08.645Z,8.33
2022-09-27T06:33:35.700Z,8.38
2022-09-27T06:36:04.072Z,8.29
2022-09-27T06:38:31.013Z,8.40
2022-09-27T06:41:06.497Z,8.31
2022-09-27T06:43:34.147Z,8.47
2022-09-27T06:46:07.668Z,8.47
2022-09-27T06:48:36.107Z,8.41
2022-09-27T06:51:03.214Z,8.37
2022-09-27T06:53:30.112Z,8.20
2022-09-27T06:56:01.073Z,8.23
2022-09-27T06:58:47.341Z,8.23
2022-09-27T07:01:14.341Z,8.26
2022-09-27T07:03:43.166Z,8.24
2022-09-27T07:06:18.350Z,8.24
2022-09-27T07:08:44.924Z,8.28
2022-09-27T07:11:11.488Z,8.33
2022-09-27T07:13:42.969Z,8.47
2022-09-27T07:16:13.786Z,8.51
2022-09-27T07:18:41.775Z,8.51
2022-09-27T07:21:08.889Z,8.48
2022-09-27T07:23:36.470Z,8.57
2022-09-27T07:26:05.158Z,8.60
2022-09-27T07:28:31.986Z,8.54
2022-09-27T07:30:58.962Z,8.56
2022-09-27T07:33:25.977Z,8.70
2022-09-27T07:35:52.502Z,8.61
2022-09-27T07:38:19.779Z,8.66
2022-09-27T07:40:46.609Z,8.72
2022-09-27T07:43:13.327Z,8.63
2022-09-27T07:45:40.264Z,8.52
2022-09-27T07:48:08.919Z,8.49
2022-09-27T07:50:35.791Z,8.53
2022-09-27T07:53:02.362Z,8.59
2022-09-27T07:55:28.919Z,8.74
2022-09-27T07:58:07.161Z,8.71
2022-09-27T08:00:33.699Z,8.88
2022-09-27T08:03:05.883Z,8.97
2022-09-27T08:05:33.453Z,8.98
2022-09-27T08:08:00.017Z,9.04
2022-09-27T08:10:31.353Z,9.00
2022-09-27T08:12:58.991Z,8.82
2022-09-27T08:15:25.897Z,8.82
2022-09-27T08:17:53.554Z,8.66
2022-09-27T08:20:23.381Z,8.76
2022-09-27T08:22:49.944Z,8.72
2022-09-27T08:25:16.869Z,8.80
2022-09-27T08:27:43.441Z,8.93
2022-09-27T08:30:10.682Z,8.80
2022-09-27T08:32:37.852Z,8.83
2022-09-27T08:35:06.770Z,8.80
2022-09-27T08:37:33.474Z,8.99
2022-09-27T08:40:00.525Z,8.96
2022-09-27T08:42:47.004Z,8.92
2022-09-27T08:46:05.521Z,8.93
2022-09-27T08:48:34.151Z,8.79
2022-09-27T08:51:04.176Z,8.78
2022-09-27T08:53:40.942Z,8.81
2022-09-27T08:56:09.961Z,8.85
2022-09-27T08:58:48.680Z,8.80
2022-09-27T09:01:19.188Z,8.92
2022-09-27T09:03:59.769Z,8.82
2022-09-27T09:06:29.997Z,8.83
2022-09-27T09:09:02.562Z,8.69
2022-09-27T09:12:16.859Z,8.65
2022-09-27T09:15:04.455Z,8.42
2022-09-27T09:17:51.922Z,8.45
2022-09-27T09:20:30.474Z,8.46
2022-09-27T09:23:26.216Z,8.63
2022-09-27T09:26:03.958Z,8.74
2022-09-27T09:28:45.480Z,8.77
2022-09-27T09:31:15.045Z,8.74
2022-09-27T09:33:49.101Z,8.70
2022-09-27T09:36:18.181Z,8.75
2022-09-27T09:38:49.559Z,8.51
2022-09-27T09:41:31.365Z,8.39
2022-09-27T09:44:10.825Z,8.41
2022-09-27T09:46:45.553Z,8.61
2022-09-27T09:49:28.703Z,8.48
2022-09-27T09:52:09.167Z,8.73
2022-09-27T09:54:51.544Z,8.74
2022-09-27T09:57:41.022Z,8.70
2022-09-27T10:00:16.368Z,8.86
2022-09-27T10:02:45.380Z,8.95
2022-09-27T10:05:21.221Z,9.05
2022-09-27T10:07:50.897Z,9.07
2022-09-27T10:10:20.532Z,9.10
2022-09-27T10:12:47.971Z,8.98
2022-09-27T10:15:20.693Z,9.12
2022-09-27T10:17:53.962Z,9.52
2022-09-27T10:20:42.126Z,9.56
2022-09-27T10:23:14.911Z,9.39
2022-09-27T10:25:48.407Z,9.19
2022-09-27T10:28:37.885Z,9.41
2022-09-27T10:31:18.701Z,9.61
2022-09-27T10:33:53.707Z,9.53
2022-09-27T10:36:27.409Z,9.54
2022-09-27T10:38:57.060Z,9.69
2022-09-27T10:41:25.853Z,9.73
2022-09-27T10:43:52.526Z,9.89
2022-09-27T10:46:27.219Z,9.86
2022-09-27T10:49:42.066Z,9.77
2022-09-27T10:52:16.661Z,9.83
2022-09-27T10:54:52.365Z,9.72
2022-09-27T10:57:23.095Z,9.88
2022-09-27T11:00:21.270Z,9.90
2022-09-27T11:02:53.547Z,9.85
2022-09-27T11:05:27.924Z,10.04
2022-09-27T11:07:56.933Z,9.98
2022-09-27T11:10:36.927Z,10.14
2022-09-27T11:13:16.286Z,10.24
2022-09-27T11:16:05.832Z,10.42
2022-09-27T11:18:58.777Z,10.35
2022-09-27T11:21:25.680Z,10.65
2022-09-27T11:24:35.032Z,10.88
2022-09-27T11:27:18.852Z,10.29
2022-09-27T11:29:45.693Z,10.81
2022-09-27T11:32:27.572Z,10.75
2022-09-27T11:35:16.789Z,11.16
2022-09-27T11:38:00.231Z,10.94
2022-09-27T11:40:51.194Z,11.31
2022-09-27T11:43:29.876Z,11.23
2022-09-27T11:46:19.331Z,11.57
2022-09-27T11:49:35.118Z,11.40
2022-09-27T11:52:26.790Z,11.10
2022-09-27T11:54:56.084Z,11.16
2022-09-27T11:57:31.576Z,11.05
2022-09-27T12:00:17.826Z,11.10
2022-09-27T12:02:53.515Z,11.19
2022-09-27T12:05:31.481Z,11.17
2022-09-27T12:08:25.705Z,11.16
2022-09-27T12:10:59.384Z,11.19
2022-09-27T12:13:41.055Z,11.21
2022-09-27T12:16:08.261Z,11.08
2022-09-27T12:18:40.289Z,11.12
2022-09-27T12:21:11.011Z,11.01
2022-09-27T12:23:47.555Z,11.17
2022-09-27T12:26:25.304Z,11.41
2022-09-27T12:28:56.085Z,11.37
2022-09-27T12:31:29.289Z,11.41
2022-09-27T12:34:28.428Z,11.58
2022-09-27T12:37:18.369Z,11.69
2022-09-27T12:39:56.596Z,11.85
2022-09-27T12:42:31.796Z,12.34
2022-09-27T12:44:58.375Z,11.83
2022-09-27T12:47:43.004Z,11.95
2022-09-27T12:50:31.426Z,11.89
2022-09-27T12:53:09.792Z,11.79
2022-09-27T12:55:54.610Z,11.87
2022-09-27T12:58:37.503Z,11.40
2022-09-27T13:01:22.549Z,10.70
2022-09-27T13:04:10.337Z,10.10
2022-09-27T13:06:53.095Z,9.92
2022-09-27T13:09:28.322Z,10.09
2022-09-27T13:12:21.816Z,10.28
2022-09-27T13:15:17.403Z,10.49
2022-09-27T13:17:44.816Z,10.85
2022-09-27T13:20:35.921Z,10.82
2022-09-27T13:23:24.250Z,11.13
2022-09-27T13:26:03.684Z,10.95
2022-09-27T13:28:32.800Z,11.19
2022-09-27T13:31:09.426Z,11.39
2022-09-27T13:33:46.785Z,11.32
2022-09-27T13:36:26.170Z,11.49
2022-09-27T13:39:15.631Z,11.51
2022-09-27T13:41:44.921Z,11.56
2022-09-27T13:44:44.949Z,11.62
2022-09-27T13:47:11.449Z,11.51
2022-09-27T13:49:44.233Z,11.46
2022-09-27T13:52:37.382Z,11.59
2022-09-27T13:55:41.790Z,11.43
2022-09-27T13:58:26.580Z,11.49
2022-09-27T14:00:57.548Z,10.28
2022-09-27T14:03:28.243Z,9.69
2022-09-27T14:05:59.473Z,9.22
2022-09-27T14:08:38.703Z,9.04
2022-09-27T14:11:12.910Z,9.24
2022-09-27T14:13:40.953Z,9.39
2022-09-27T14:16:08.694Z,9.56
2022-09-27T14:18:39.943Z,9.65
2022-09-27T14:21:21.222Z,9.71
2022-09-27T14:23:47.729Z,9.95
2022-09-27T14:26:28.017Z,9.83
2022-09-27T14:28:54.656Z,9.68
2022-09-27T14:31:23.923Z,9.79
2022-09-27T14:33:51.352Z,9.52
2022-09-27T14:36:51.974Z,9.66
2022-09-27T14:39:37.584Z,9.66
2022-09-27T14:42:16.868Z,9.43
2022-09-27T14:44:45.468Z,9.56
2022-09-27T14:47:24.822Z,9.72
2022-09-27T14:50:12.966Z,9.64
2022-09-27T14:52:39.696Z,9.45
2022-09-27T14:55:18.331Z,9.69
2022-09-27T14:57:54.041Z,9.48
2022-09-27T15:00:28.976Z,9.63
2022-09-27T15:02:56.532Z,9.60
2022-09-27T15:05:26.542Z,9.52
2022-09-27T15:07:55.823Z,9.52
2022-09-27T15:10:27.278Z,9.42
2022-09-27T15:12:59.886Z,9.28
2022-09-27T15:15:32.612Z,9.35
2022-09-27T15:18:00.420Z,9.46
2022-09-27T15:20:35.261Z,9.64
2022-09-27T15:23:04.324Z,9.97
2022-09-27T15:25:35.491Z,10.10
2022-09-27T15:28:22.494Z,9.84
2022-09-27T15:30:55.129Z,9.91
2022-09-27T15:33:25.755Z,10.10
2022-09-27T15:35:56.077Z,10.11
2022-09-27T15:38:33.788Z,10.14
2022-09-27T15:41:02.295Z,10.18
2022-09-27T15:43:47.966Z,9.97
2022-09-27T15:46:38.056Z,10.03
2022-09-27T15:49:16.906Z,10.03
2022-09-27T15:51:49.099Z,9.82
2022-09-27T15:54:19.460Z,9.80
2022-09-27T15:56:46.912Z,9.68
2022-09-27T15:59:22.609Z,9.58
2022-09-27T16:01:51.320Z,9.73
2022-09-27T16:04:17.943Z,9.79
2022-09-27T16:06:44.561Z,9.80
2022-09-27T16:09:17.869Z,9.70
2022-09-27T16:11:45.519Z,9.87
2022-09-27T16:14:16.495Z,9.64
2022-09-27T16:16:45.703Z,9.87
2022-09-27T16:19:12.685Z,9.67
2022-09-27T16:21:39.344Z,9.72
2022-09-27T16:24:06.434Z,8.89
2022-09-27T16:26:34.158Z,8.99
2022-09-27T16:29:00.917Z,8.85
2022-09-27T16:31:28.002Z,8.95
2022-09-27T16:33:54.524Z,8.85
2022-09-27T16:36:21.075Z,8.73
2022-09-27T16:38:51.938Z,8.74
2022-09-27T16:41:20.351Z,8.70
2022-09-27T16:43:47.822Z,8.57
2022-09-27T16:46:18.983Z,8.65
2022-09-27T16:48:47.205Z,8.58
2022-09-27T16:51:38.793Z,8.65
2022-09-27T16:54:06.507Z,8.74
2022-09-27T16:56:34.703Z,8.84
2022-09-27T16:59:03.768Z,8.88
2022-09-27T17:01:34.456Z,8.85
2022-09-27T17:04:01.195Z,8.81
2022-09-27T17:06:32.026Z,8.98
2022-09-27T17:09:02.427Z,8.96
2022-09-27T17:11:29.600Z,8.68
2022-09-27T17:13:56.150Z,8.70
2022-09-27T17:16:24.326Z,8.92
2022-09-27T17:18:51.297Z,8.93
2022-09-27T17:21:18.079Z,8.98
2022-09-27T17:23:44.614Z,9.00
2022-09-27T17:26:20.656Z,9.08
2022-09-27T17:28:47.985Z,8.92
2022-09-27T17:31:17.666Z,8.83
2022-09-27T17:33:49.078Z,8.75
2022-09-27T17:36:18.498Z,8.79
2022-09-27T17:38:46.569Z,8.71
2022-09-27T17:41:15.676Z,8.75
2022-09-27T17:43:52.452Z,8.72
2022-09-27T17:46:21.319Z,8.64
2022-09-27T17:49:07.574Z,8.58
2022-09-27T17:51:36.733Z,8.38
2022-09-27T17:54:04.792Z,8.39
2022-09-27T17:56:34.087Z,8.36
2022-09-27T17:59:01.177Z,8.40
2022-09-27T18:01:27.853Z,8.26
2022-09-27T18:03:56.131Z,8.20
2022-09-27T18:06:23.499Z,8.13
2022-09-27T18:08:50.914Z,8.49
2022-09-27T18:11:25.355Z,8.34
2022-09-27T18:13:51.827Z,8.41
2022-09-27T18:16:19.351Z,8.31
2022-09-27T18:18:50.783Z,8.31
2022-09-27T18:21:23.753Z,8.31
2022-09-27T18:23:54.269Z,8.28
2022-09-27T18:26:24.111Z,8.41
2022-09-27T18:28:55.004Z,8.37
2022-09-27T18:31:23.085Z,8.42
2022-09-27T18:33:50.228Z,8.50
2022-09-27T18:36:21.755Z,8.59
2022-09-27T18:39:00.534Z,8.39
2022-09-27T18:41:29.777Z,8.61
2022-09-27T18:43:59.921Z,8.59
2022-09-27T18:46:37.298Z,8.43
2022-09-27T18:49:05.918Z,8.45
2022-09-27T18:51:33.368Z,8.55
2022-09-27T18:54:02.296Z,8.64
2022-09-27T18:56:29.881Z,8.47
2022-09-27T18:58:57.315Z,8.14
2022-09-27T19:01:25.618Z,8.16
2022-09-27T19:03:52.839Z,8.18
2022-09-27T19:06:22.174Z,8.38
2022-09-27T19:08:58.628Z,8.23
2022-09-27T19:11:27.611Z,8.36
2022-09-27T19:13:56.476Z,8.29
2022-09-27T19:16:24.702Z,8.34
2022-09-27T19:18:51.704Z,8.21
2022-09-27T19:21:21.124Z,8.25
2022-09-27T19:23:49.061Z,8.25
2022-09-27T19:26:23.883Z,8.25
2022-09-27T19:28:50.631Z,8.29
2022-09-27T19:31:20.249Z,8.34
2022-09-27T19:33:47.042Z,8.19
2022-09-27T19:36:16.343Z,8.20
2022-09-27T19:38:43.609Z,8.16
2022-09-27T19:41:12.785Z,8.21
2022-09-27T19:43:39.430Z,8.20
2022-09-27T19:46:08.807Z,8.19
2022-09-27T19:48:38.085Z,8.33
2022-09-27T19:51:06.208Z,8.34
2022-09-27T19:53:34.504Z,8.32
2022-09-27T19:56:05.668Z,8.20
2022-09-27T19:58:37.016Z,8.40
2022-09-27T20:01:06.313Z,8.19
2022-09-27T20:03:33.933Z,8.06
2022-09-27T20:06:01.571Z,8.14
2022-09-27T20:08:29.363Z,8.09
2022-09-27T20:11:05.364Z,8.11
2022-09-27T20:13:33.679Z,8.01
2022-09-27T20:16:15.276Z,8.15
2022-09-27T20:18:44.441Z,8.02
2022-09-27T20:21:11.280Z,8.12
2022-09-27T20:23:38.169Z,7.92
2022-09-27T20:26:16.041Z,7.91
2022-09-27T20:28:44.797Z,7.99
2022-09-27T20:31:17.324Z,7.97
2022-09-27T20:33:45.879Z,8.01
2022-09-27T20:36:29.044Z,8.02
2022-09-27T20:39:02.262Z,7.93
2022-09-27T20:41:31.782Z,8.04
2022-09-27T20:44:01.587Z,8.15
2022-09-27T20:46:28.201Z,8.13
2022-09-27T20:48:59.002Z,8.09
2022-09-27T20:51:27.494Z,7.79
2022-09-27T20:53:54.299Z,7.68
2022-09-27T20:56:23.563Z,7.65
2022-09-27T20:58:52.473Z,7.64
2022-09-27T21:01:20.414Z,7.53
2022-09-27T21:03:47.091Z,7.65
2022-09-27T21:06:14.014Z,7.78
2022-09-27T21:08:41.064Z,7.84
2022-09-27T21:11:10.510Z,7.86
2022-09-27T21:13:41.130Z,7.84
2022-09-27T21:16:10.899Z,7.58
2022-09-27T21:18:38.386Z,7.58
2022-09-27T21:21:10.432Z,7.59
2022-09-27T21:23:43.500Z,7.71
2022-09-27T21:26:13.692Z,7.93
2022-09-27T21:28:54.266Z,7.85
2022-09-27T21:31:31.885Z,7.96
2022-09-27T21:34:00.785Z,8.09
2022-09-27T21:36:38.213Z,8.07
2022-09-27T21:39:09.125Z,7.92
2022-09-27T21:41:36.172Z,8.18
2022-09-27T21:44:04.449Z,8.18
2022-09-27T21:46:31.024Z,8.14
2022-09-27T21:48:59.464Z,7.97
2022-09-27T21:51:31.643Z,8.03
2022-09-27T21:54:00.798Z,7.87
2022-09-27T21:56:29.301Z,8.01
2022-09-27T21:58:55.791Z,8.14
2022-09-27T22:01:24.623Z,7.99
2022-09-27T22:03:54.042Z,7.88
2022-09-27T22:06:23.107Z,7.75
2022-09-27T22:08:50.660Z,7.77
2022-09-27T22:11:20.710Z,7.67
2022-09-27T22:13:47.380Z,7.64
2022-09-27T22:16:16.436Z,7.72
2022-09-27T22:18:44.497Z,7.69
2022-09-27T22:21:14.281Z,7.69
2022-09-27T22:23:40.977Z,7.61
2022-09-27T22:26:15.528Z,7.55
2022-09-27T22:28:43.501Z,7.52
2022-09-27T22:31:11.463Z,7.43
2022-09-27T22:33:38.620Z,7.31
2022-09-27T22:36:05.736Z,7.30
2022-09-27T22:38:32.890Z,7.32
2022-09-27T22:41:01.285Z,7.34
2022-09-27T22:43:29.291Z,7.29
2022-09-27T22:45:56.894Z,7.43
2022-09-27T22:48:23.596Z,7.51
2022-09-27T22:50:50.052Z,7.63
2022-09-27T22:53:16.630Z,7.58
2022-09-27T22:55:43.206Z,7.68
2022-09-27T22:58:09.683Z,7.57
2022-09-27T23:00:38.706Z,7.56
2022-09-27T23:03:05.241Z,7.56
2022-09-27T23:05:31.738Z,7.63
2022-09-27T23:07:58.231Z,7.63
2022-09-27T23:10:24.772Z,7.55
2022-09-27T23:12:54.711Z,7.57
2022-09-27T23:15:21.874Z,7.54
2022-09-27T23:17:51.759Z,7.67
2022-09-27T23:20:18.669Z,7.38
2022-09-27T23:22:45.547Z,7.51
2022-09-27T23:25:12.292Z,7.49
2022-09-27T23:27:41.990Z,7.44
2022-09-27T23:30:17.097Z,7.48
2022-09-27T23:32:47.189Z,7.50
2022-09-27T23:35:13.728Z,7.49
2022-09-27T23:37:41.678Z,7.61
2022-09-27T23:40:09.437Z,7.78
2022-09-27T23:42:36.333Z,7.82
2022-09-27T23:45:02.892Z,7.69
2022-09-27T23:47:29.452Z,7.86
2022-09-27T23:49:58.341Z,7.93
2022-09-27T23:52:26.160Z,7.94
2022-09-27T23:54:53.138Z,7.98
2022-09-27T23:57:19.600Z,7.94
2022-09-27T23:59:46.076Z,7.91
